Flight Track Log - Related Links

Times and Time Zones

All times are in EDT time to prevent confusion due to time zone crossing. See the UAL3732 flight status page for this flight to view local times or setup timezone preferences in your user account.

Time Position Orientation Groundspeed Altitude Reporting Facility
EDT Latitude Longitude Course Direction KTS MPH feet Rate Location/Type
Sun 07:42:51 AM 35.2331 -80.9594 330° Northwest 174 200 2,000  Level Atlanta Center
Sun 07:43:46 AM 35.2778 -80.9908 330° Northwest 227 261 3,500 2,213 Climbing Atlanta Center
Sun 07:44:53 AM 35.3553 -81.0008 354° North 274 315 6,500 2,591 Climbing Atlanta Center
Sun 07:45:58 AM 35.4339 -80.9750 15° North 305 351 9,200 2,112 Climbing Atlanta Center
Sun 07:46:58 AM 35.5186 -80.9489 14° North 310 357 10,900 2,050 Climbing Atlanta Center
Sun 07:47:58 AM 35.6119 -80.9197 14° North 329 379 13,300 2,250 Climbing Atlanta Center
Sun 07:48:58 AM 35.7092 -80.8906 14° North 341 392 15,400 1,950 Climbing Atlanta Center
Sun 07:49:58 AM 35.8131 -80.8761 North 361 415 17,200 1,950 Climbing Atlanta Center
Sun 07:50:58 AM 35.9097 -80.9006 348° North 365 420 19,300 1,900 Climbing Atlanta Center
Sun 07:51:58 AM 36.0006 -80.9511 336° Northwest 353 406 21,000 1,550 Climbing Atlanta Center
Sun 07:52:58 AM 36.0939 -81.0039 335° Northwest 363 418 22,400 1,600 Climbing Atlanta Center
Sun 07:53:58 AM 36.1931 -81.0542 338° Northwest 369 425 24,200 1,650 Climbing Atlanta Center
Sun 07:54:58 AM 36.2861 -81.1128 333° Northwest 369 425 25,700 1,200 Climbing Atlanta Center
Sun 07:55:58 AM 36.3550 -81.2056 313° West 363 418 26,600 1,150 Climbing Atlanta Center
Sun 07:56:58 AM 36.4303 -81.2983 315° West 363 418 28,000 1,150 Climbing Atlanta Center
Sun 07:57:58 AM 36.5031 -81.3914 314° West 377 434 28,900 500 Climbing Atlanta Center
Sun 07:58:58 AM 36.5781 -81.4847 315° West 383 441 29,000 50 Climbing Atlanta Center
Sun 07:59:58 AM 36.6489 -81.5858 311° West 383 441 29,000  Level Atlanta Center
Sun 08:01:44 AM 36.7731 -81.7522 313° West 399 459 29,000  Level Indianapolis Center
Sun 08:02:45 AM 36.8567 -81.8556 315° West 415 478 29,000 590 Level Indianapolis Center
Sun 08:03:46 AM 36.9458 -81.9739 313° West 404 465 30,200 984 Climbing Indianapolis Center
Sun 08:04:47 AM 37.0222 -82.0761 313° West 401 461 31,000 836 Climbing Indianapolis Center
Sun 08:05:48 AM 37.0986 -82.1772 313° West 400 460 31,900 492 Climbing Indianapolis Center
Sun 08:06:49 AM 37.1744 -82.2767 314° West 396 456 32,000 49 Climbing Indianapolis Center
Sun 08:07:50 AM 37.2472 -82.3747 313° West 388 447 32,000  Level Indianapolis Center
Sun 08:08:51 AM 37.3175 -82.4675 314° West 374 430 32,000  Level Indianapolis Center
Sun 08:09:51 AM 37.3872 -82.5619 313° West 369 425 32,000  Level Indianapolis Center
Sun 08:10:52 AM 37.4558 -82.6564 312° West 367 422 32,000  Level Indianapolis Center
Sun 08:11:53 AM 37.5267 -82.7517 313° West 372 428 32,000  Level Indianapolis Center
Sun 08:12:54 AM 37.5981 -82.8467 313° West 373 429 32,000  Level Indianapolis Center
Sun 08:13:55 AM 37.6692 -82.9456 312° West 378 435 32,000  Level Indianapolis Center
Sun 08:14:56 AM 37.7517 -83.0583 313° West 376 433 32,000  Level Indianapolis Center
Sun 08:15:57 AM 37.8239 -83.1567 313° West 379 436 32,000  Level Indianapolis Center
Sun 08:16:58 AM 37.8947 -83.2542 313° West 377 434 32,000  Level Indianapolis Center
Sun 08:17:59 AM 37.9567 -83.3600 307° West 373 429 32,000  Level Indianapolis Center
Sun 08:19:00 AM 38.0075 -83.4706 300° West 364 419 32,000  Level Indianapolis Center
Sun 08:20:01 AM 38.0606 -83.5789 302° West 360 414 32,000  Level Indianapolis Center
Sun 08:21:02 AM 38.1119 -83.6864 301° West 357 411 32,000  Level Indianapolis Center
Sun 08:22:03 AM 38.1625 -83.7942 301° West 356 410 32,000  Level Indianapolis Center
Sun 08:23:04 AM 38.2139 -83.8992 302° West 351 404 32,000  Level Indianapolis Center
Sun 08:24:04 AM 38.2650 -84.0050 302° West 350 403 32,000  Level Indianapolis Center
Sun 08:25:05 AM 38.3153 -84.1094 302° West 346 398 32,000  Level Indianapolis Center
Sun 08:26:06 AM 38.3658 -84.2136 302° West 344 396 32,000  Level Indianapolis Center
Sun 08:27:07 AM 38.4167 -84.3169 302° West 345 397 32,000  Level Indianapolis Center
Sun 08:28:08 AM 38.4747 -84.4381 302° West 344 396 32,000  Level Indianapolis Center
Sun 08:29:09 AM 38.5236 -84.5414 301° West 341 392 32,000  Level Indianapolis Center
Sun 08:30:10 AM 38.5742 -84.6436 302° West 342 394 32,000 -49 Level Indianapolis Center
Sun 08:31:11 AM 38.6239 -84.7469 302° West 340 391 31,900 -541 Descending Indianapolis Center
Sun 08:32:12 AM 38.6703 -84.8450 301° West 348 400 30,900 -984 Descending Indianapolis Center
Sun 08:33:13 AM 38.7539 -84.9200 325° Northwest 375 432 29,900 -1,033 Descending Indianapolis Center
Sun 08:34:14 AM 38.8569 -84.9622 342° North 390 449 28,800 -885 Descending Indianapolis Center
Sun 08:35:15 AM 38.9586 -85.0058 342° North 386 444 28,100 -393 Descending Indianapolis Center
Sun 08:36:16 AM 39.0786 -85.0578 341° North 382 440 28,000 -49 Descending Indianapolis Center
Sun 08:37:17 AM 39.1650 -85.1186 331° Northwest 361 415 28,000  Level Indianapolis Center
Sun 08:38:18 AM 39.2503 -85.1756 333° Northwest 350 403 28,000  Level Indianapolis Center
Sun 08:39:20 AM 39.3358 -85.2322 333° Northwest 346 398 28,000  Level Indianapolis Center
Sun 08:40:21 AM 39.4267 -85.2800 338° Northwest 355 409 28,000  Level Indianapolis Center
Sun 08:41:22 AM 39.5256 -85.3147 345° North 366 421 28,000  Level Indianapolis Center
Sun 08:42:23 AM 39.6239 -85.3511 344° North 370 426 28,000  Level Indianapolis Center
Sun 08:43:24 AM 39.7233 -85.3869 345° North 373 429 28,000 -197 Level Indianapolis Center
Sun 08:44:25 AM 39.8225 -85.4244 344° North 374 430 27,600 -885 Descending Indianapolis Center
Sun 08:45:26 AM 39.9422 -85.4697 344° North 376 433 26,200 -787 Descending Indianapolis Center
Sun 08:46:27 AM 40.0414 -85.5075 344° North 376 433 26,000 -98 Descending Indianapolis Center
Sun 08:47:29 AM 40.1403 -85.5442 344° North 372 428 26,000 -288 Level Indianapolis Center
Sun 08:48:11 AM 40.1983 -85.5644 345° North 368 423 25,500 -990 Descending Chicago Center
Sun 08:49:12 AM 40.3206 -85.6111 344° North 383 441 24,300 -738 Descending Chicago Center
Sun 08:50:13 AM 40.4247 -85.6508 344° North 391 450 24,000 -148 Descending Chicago Center
Sun 08:51:14 AM 40.5267 -85.6897 344° North 385 443 24,000 -197 Level Chicago Center
Sun 08:52:15 AM 40.6283 -85.7297 343° North 384 442 23,600 -683 Descending Chicago Center
Sun 08:53:17 AM 40.7231 -85.7744 340° North 370 426 22,600 -780 Descending Chicago Center
Sun 08:54:18 AM 40.8167 -85.8181 341° North 359 413 22,000 -295 Descending Chicago Center
Sun 08:55:19 AM 40.8931 -85.8897 325° Northwest 342 394 22,000  Level Chicago Center
Sun 08:56:20 AM 40.9539 -85.9831 311° West 336 387 22,000  Level Chicago Center
Sun 08:57:21 AM 41.0142 -86.0783 310° West 336 387 22,000  Level Chicago Center
Sun 08:58:22 AM 41.0744 -86.1744 310° West 339 390 22,000  Level Chicago Center
Sun 08:59:24 AM 41.1464 -86.2894 310° West 337 388 22,000  Level Chicago Center
Sun 09:00:25 AM 41.2075 -86.3858 310° West 341 392 22,000 -885 Level Chicago Center
Sun 09:01:26 AM 41.2653 -86.4772 310° West 324 373 20,200 -976 Descending Chicago Center
Sun 09:02:28 AM 41.3225 -86.5675 310° West 319 367 20,000 -537 Descending Chicago Center
Sun 09:03:29 AM 41.3783 -86.6597 309° West 321 369 19,100 -1,328 Descending Chicago Center
Sun 09:04:30 AM 41.4464 -86.7228 325° Northwest 293 337 17,300 -1,902 Descending Chicago Center
Sun 09:05:32 AM 41.5242 -86.7625 339° North 301 346 15,200 -2,244 Descending Chicago Center
Sun 09:06:33 AM 41.6081 -86.7831 350° North 307 353 12,700 -1,574 Descending Chicago Center
Sun 09:07:34 AM 41.6956 -86.7992 352° North 316 364 12,000 -341 Descending Chicago Center
Sun 09:08:36 AM 41.7828 -86.8100 355° North 317 365 12,000  Level Chicago Center
Sun 09:09:37 AM 41.8797 -86.8475 344° North 310 357 12,000 -344 Level Chicago Center
Sun 09:10:38 AM 41.9169 -86.9283 302° West 275 316 11,300 -1,073 Descending Chicago Center
Sun 09:11:40 AM 41.9292 -87.0181 280° West 254 292 9,800 -1,171 Descending Chicago Center
Sun 09:12:41 AM 41.9400 -87.1075 279° West 247 284 8,900 -927 Descending Chicago Center
Sun 09:13:43 AM 41.9517 -87.1997 280° West 250 288 7,900 -927 Descending Chicago Center
Sun 09:14:44 AM 41.9644 -87.2931 280° West 254 292 7,000 -439 Descending Chicago Center
Sun 09:15:46 AM 41.9778 -87.3856 281° West 253 291 7,000  Level Chicago Center
Sun 09:16:13 AM 41.9833 -87.4500 277° West 258 297 7,000 -614 Level Chicago TRACON
Sun 09:17:14 AM 41.9833 -87.5333 270° West 231 266 6,100 -942 Descending Chicago TRACON
Sun 09:18:14 AM 41.9833 -87.6167 270° West 184 212 5,100 -1,000 Descending Chicago TRACON
Sun 09:19:14 AM 41.9833 -87.6667 270° West 171 197 4,100 -1,000 Descending Chicago TRACON
Sun 09:20:14 AM 41.9833 -87.7333 270° West 172 198 3,100 -1,000 Descending Chicago TRACON
Sun 09:21:08 AM 41.9833 -87.7833 270° West 168 193 2,200 -842 Descending Chicago TRACON
Sun 09:22:08 AM 41.9833 -87.8500 270° West 133 153 1,500 -700 Descending Chicago TRACON
Sun 09:24:00 AM 41.9667 -87.9000 270° West  Level FlightAware Approximate

Login

Don't have an account? Register now (free) for customized features, flight alerts, and more!